createdAt,value
2022-10-26T00:00:25.968Z,2.90
2022-10-26T00:02:54.407Z,3.00
2022-10-26T00:05:22.032Z,3.05
2022-10-26T00:07:49.265Z,3.85
2022-10-26T00:10:16.047Z,2.50
2022-10-26T00:12:42.674Z,3.75
2022-10-26T00:15:09.723Z,2.88
2022-10-26T00:17:36.367Z,2.40
2022-10-26T00:20:03.002Z,2.50
2022-10-26T00:22:41.964Z,2.40
2022-10-26T00:25:09.004Z,2.47
2022-10-26T00:27:35.993Z,2.10
2022-10-26T00:30:03.607Z,2.75
2022-10-26T00:32:30.310Z,2.10
2022-10-26T00:34:57.064Z,2.28
2022-10-26T00:37:23.726Z,2.88
2022-10-26T00:39:50.320Z,3.53
2022-10-26T00:42:21.343Z,3.17
2022-10-26T00:44:47.942Z,2.70
2022-10-26T00:47:33.675Z,3.08
2022-10-26T00:50:03.643Z,3.50
2022-10-26T00:52:30.197Z,3.05
2022-10-26T00:54:56.923Z,4.55
2022-10-26T00:57:23.513Z,5.63
2022-10-26T00:59:50.125Z,2.60
2022-10-26T01:02:16.685Z,2.20
2022-10-26T01:04:43.259Z,2.90
2022-10-26T01:07:10.028Z,2.10
2022-10-26T01:09:36.627Z,2.50
2022-10-26T01:12:03.403Z,4.50
2022-10-26T01:14:30.000Z,5.18
2022-10-26T01:16:59.640Z,4.63
2022-10-26T01:19:52.997Z,4.72
2022-10-26T01:22:21.337Z,4.95
2022-10-26T01:25:19.036Z,3.80
2022-10-26T01:27:47.321Z,3.10
2022-10-26T01:30:18.327Z,4.45
2022-10-26T01:32:54.140Z,4.55
2022-10-26T01:35:43.519Z,3.35
2022-10-26T01:38:40.976Z,4.43
2022-10-26T01:41:28.676Z,4.40
2022-10-26T01:44:10.873Z,3.35
2022-10-26T01:46:39.546Z,3.88
2022-10-26T01:49:10.765Z,3.25
2022-10-26T01:51:38.938Z,2.90
2022-10-26T01:54:05.496Z,2.47
2022-10-26T01:56:34.385Z,2.97
2022-10-26T01:59:00.855Z,2.83
2022-10-26T02:01:36.555Z,3.40
2022-10-26T02:04:15.198Z,2.58
2022-10-26T02:07:20.422Z,4.28
2022-10-26T02:10:12.388Z,2.30
2022-10-26T02:12:44.802Z,2.25
2022-10-26T02:15:22.362Z,2.80
2022-10-26T02:17:55.914Z,2.28
2022-10-26T02:20:44.205Z,5.90
2022-10-26T02:23:10.770Z,2.50
2022-10-26T02:25:44.637Z,2.45
2022-10-26T02:28:14.046Z,2.45
2022-10-26T02:30:40.659Z,3.00
2022-10-26T02:33:07.233Z,3.63
2022-10-26T02:35:35.651Z,3.45
2022-10-26T02:38:04.548Z,4.05
2022-10-26T02:40:31.138Z,2.83
2022-10-26T02:43:00.051Z,2.90
2022-10-26T02:45:28.733Z,3.25
2022-10-26T02:47:55.357Z,2.58
2022-10-26T02:50:26.787Z,2.10
2022-10-26T02:53:09.133Z,2.70
2022-10-26T02:55:40.607Z,2.03
2022-10-26T02:58:10.247Z,2.17
2022-10-26T03:00:36.883Z,2.22
2022-10-26T03:03:03.729Z,2.30
2022-10-26T03:05:32.654Z,2.15
2022-10-26T03:07:59.690Z,2.40
2022-10-26T03:10:26.395Z,2.20
2022-10-26T03:12:53.424Z,4.68
2022-10-26T03:15:20.838Z,3.92
2022-10-26T03:17:47.823Z,2.70
2022-10-26T03:20:14.963Z,2.53
2022-10-26T03:22:41.603Z,2.35
2022-10-26T03:27:35.309Z,2.40
2022-10-26T03:30:06.663Z,3.25
2022-10-26T03:32:33.267Z,4.78
2022-10-26T03:34:59.845Z,5.22
2022-10-26T03:37:26.565Z,2.90
2022-10-26T03:39:53.191Z,2.35
2022-10-26T03:42:19.761Z,3.10
2022-10-26T03:44:47.278Z,2.50
2022-10-26T03:47:13.859Z,2.88
2022-10-26T03:49:40.512Z,3.47
2022-10-26T03:52:07.123Z,2.88
2022-10-26T03:54:33.813Z,3.25
2022-10-26T03:57:00.368Z,3.28
2022-10-26T03:59:26.921Z,7.35
2022-10-26T04:01:56.745Z,5.85
2022-10-26T04:04:24.610Z,6.68
2022-10-26T04:06:51.291Z,3.28
2022-10-26T04:09:17.920Z,3.90
2022-10-26T04:11:44.586Z,3.13
2022-10-26T04:14:11.210Z,3.58
2022-10-26T04:16:37.813Z,6.25
2022-10-26T04:19:04.407Z,6.45
2022-10-26T04:21:33.217Z,3.13
2022-10-26T04:24:02.233Z,4.93
2022-10-26T04:26:28.971Z,3.88
2022-10-26T04:28:55.671Z,3.78
2022-10-26T04:31:22.254Z,3.22
2022-10-26T04:33:48.889Z,3.35
2022-10-26T04:36:15.476Z,3.80
2022-10-26T04:38:42.062Z,3.42
2022-10-26T04:41:08.634Z,3.35
2022-10-26T04:43:35.213Z,3.90
2022-10-26T04:46:01.964Z,5.53
2022-10-26T04:48:28.929Z,2.75
2022-10-26T04:50:58.838Z,3.30
2022-10-26T04:53:25.535Z,3.67
2022-10-26T04:55:58.829Z,5.50
2022-10-26T04:58:25.724Z,3.75
2022-10-26T05:00:52.308Z,6.90
2022-10-26T05:03:18.959Z,2.60
2022-10-26T05:05:45.607Z,2.63
2022-10-26T05:08:12.268Z,2.33
2022-10-26T05:10:39.006Z,3.20
2022-10-26T05:13:05.766Z,2.80
2022-10-26T05:15:32.428Z,3.92
2022-10-26T05:18:03.500Z,2.80
2022-10-26T05:20:31.388Z,3.00
2022-10-26T05:22:58.825Z,2.70
2022-10-26T05:25:25.874Z,2.70
2022-10-26T05:27:52.453Z,3.03
2022-10-26T05:30:19.052Z,2.78
2022-10-26T05:32:45.857Z,3.00
2022-10-26T05:35:12.552Z,2.08
2022-10-26T05:37:39.131Z,3.97
2022-10-26T05:40:06.427Z,2.53
2022-10-26T05:42:33.030Z,2.00
2022-10-26T05:45:03.829Z,2.28
2022-10-26T05:47:30.445Z,1.92
2022-10-26T05:49:57.027Z,3.13
2022-10-26T05:52:23.683Z,2.75
2022-10-26T05:54:50.326Z,2.42
2022-10-26T05:57:17.167Z,3.40
2022-10-26T05:59:43.989Z,2.95
2022-10-26T06:02:38.867Z,5.65
2022-10-26T06:05:06.131Z,3.60
2022-10-26T06:07:33.359Z,3.95
2022-10-26T06:10:00.260Z,4.40
2022-10-26T06:12:27.185Z,4.13
2022-10-26T06:14:54.145Z,4.93
2022-10-26T06:18:04.534Z,3.95
2022-10-26T06:21:04.442Z,3.33
2022-10-26T06:23:45.658Z,5.47
2022-10-26T06:26:24.317Z,7.25
2022-10-26T06:28:57.358Z,6.28
2022-10-26T06:31:23.937Z,5.35
2022-10-26T06:33:50.886Z,5.60
2022-10-26T06:36:25.324Z,5.22
2022-10-26T06:38:57.144Z,4.57
2022-10-26T06:41:23.830Z,7.50
2022-10-26T06:43:50.641Z,6.57
2022-10-26T06:46:17.135Z,6.10
2022-10-26T06:49:32.400Z,4.75
2022-10-26T06:52:03.262Z,4.95
2022-10-26T06:54:49.760Z,5.28
2022-10-26T06:57:17.249Z,4.50
2022-10-26T07:00:03.549Z,3.97
2022-10-26T07:02:30.642Z,3.97
2022-10-26T07:04:57.539Z,4.18
2022-10-26T07:07:25.328Z,4.57
2022-10-26T07:09:52.012Z,5.07
2022-10-26T07:12:18.674Z,4.25
2022-10-26T07:14:45.359Z,3.92
2022-10-26T07:17:12.078Z,5.35
2022-10-26T07:19:40.484Z,4.70
2022-10-26T07:22:07.072Z,4.40
2022-10-26T07:24:33.717Z,5.70
2022-10-26T07:27:00.391Z,5.03
2022-10-26T07:29:30.981Z,5.10
2022-10-26T07:31:57.628Z,5.30
2022-10-26T07:34:24.276Z,5.93
2022-10-26T07:36:51.692Z,4.60
2022-10-26T07:39:18.492Z,4.75
2022-10-26T07:41:45.378Z,4.55
2022-10-26T07:44:12.008Z,3.60
2022-10-26T07:46:38.664Z,3.00
2022-10-26T07:49:05.234Z,2.92
2022-10-26T07:51:31.829Z,2.20
2022-10-26T07:53:58.601Z,1.35
2022-10-26T07:56:25.268Z,1.20
2022-10-26T07:58:55.044Z,1.10
2022-10-26T08:01:21.863Z,0.93
2022-10-26T08:03:48.540Z,1.10
2022-10-26T08:06:15.186Z,1.20
2022-10-26T08:08:45.018Z,1.40
2022-10-26T08:11:14.275Z,1.08
2022-10-26T08:13:41.010Z,0.90
2022-10-26T08:16:08.363Z,1.08
2022-10-26T08:18:34.911Z,1.00
2022-10-26T08:21:10.714Z,1.20
2022-10-26T08:23:39.178Z,1.13
2022-10-26T08:26:05.923Z,1.20
2022-10-26T08:28:32.540Z,1.30
2022-10-26T08:30:59.231Z,1.50
2022-10-26T08:33:25.963Z,1.52
2022-10-26T08:35:56.583Z,1.80
2022-10-26T08:38:23.174Z,1.75
2022-10-26T08:40:50.108Z,1.85
2022-10-26T08:43:39.682Z,1.90
2022-10-26T08:46:22.277Z,2.20
2022-10-26T08:48:52.960Z,2.00
2022-10-26T08:51:25.247Z,2.38
2022-10-26T08:53:58.588Z,2.42
2022-10-26T08:56:29.419Z,2.83
2022-10-26T08:59:03.946Z,2.67
2022-10-26T09:01:34.111Z,3.30
2022-10-26T09:06:42.802Z,3.20
2022-10-26T09:09:21.858Z,2.72
2022-10-26T09:11:48.439Z,3.22
2022-10-26T09:14:28.393Z,3.50
2022-10-26T09:17:21.017Z,3.40
2022-10-26T09:20:09.404Z,2.80
2022-10-26T09:22:51.073Z,2.80
2022-10-26T09:25:22.445Z,3.30
2022-10-26T09:27:57.471Z,3.05
2022-10-26T09:30:24.294Z,3.35
2022-10-26T09:33:00.651Z,3.05
2022-10-26T09:38:32.623Z,4.03
2022-10-26T09:41:06.535Z,3.35
2022-10-26T09:48:57.379Z,3.80
2022-10-26T09:51:24.048Z,3.38
2022-10-26T09:53:50.627Z,2.45
2022-10-26T09:56:17.374Z,2.80
2022-10-26T09:58:51.589Z,2.40
2022-10-26T10:01:36.696Z,2.72
2022-10-26T10:04:13.362Z,2.80
2022-10-26T10:06:40.599Z,2.40
2022-10-26T10:09:07.149Z,2.95
2022-10-26T10:11:41.270Z,1.92
2022-10-26T10:14:08.957Z,2.53
2022-10-26T10:16:35.730Z,2.40
2022-10-26T10:19:02.384Z,2.75
2022-10-26T10:21:38.833Z,2.10
2022-10-26T10:24:38.611Z,1.98
2022-10-26T10:27:15.863Z,1.40
2022-10-26T10:29:46.204Z,2.03
2022-10-26T10:32:38.655Z,1.50
2022-10-26T10:35:25.424Z,1.60
2022-10-26T10:37:52.006Z,1.48
2022-10-26T10:40:20.945Z,1.30
2022-10-26T10:42:47.835Z,1.70
2022-10-26T10:45:20.675Z,1.50
2022-10-26T10:48:13.524Z,2.08
2022-10-26T10:50:50.755Z,1.80
2022-10-26T10:53:19.601Z,1.70
2022-10-26T10:56:05.364Z,3.58
2022-10-26T10:59:03.639Z,3.33
2022-10-26T11:01:32.555Z,3.10
2022-10-26T11:04:43.729Z,2.60
2022-10-26T11:07:10.360Z,2.70
2022-10-26T11:09:38.048Z,2.55
2022-10-26T11:12:10.283Z,2.42
2022-10-26T11:14:45.146Z,2.05
2022-10-26T11:17:24.590Z,1.63
2022-10-26T11:19:59.955Z,2.10
2022-10-26T11:22:35.544Z,2.03
2022-10-26T11:25:22.995Z,2.17
2022-10-26T11:28:02.208Z,2.08
2022-10-26T11:30:49.632Z,1.80
2022-10-26T11:33:24.063Z,2.10
2022-10-26T11:35:58.766Z,1.98
2022-10-26T11:41:13.956Z,1.55
2022-10-26T11:43:43.888Z,1.65
2022-10-26T11:46:19.131Z,2.00
2022-10-26T11:48:59.287Z,1.80
2022-10-26T11:51:39.809Z,2.38
2022-10-26T11:54:12.232Z,1.30
2022-10-26T11:56:49.813Z,1.45
2022-10-26T11:59:20.749Z,1.00
2022-10-26T12:01:51.523Z,1.30
2022-10-26T12:04:19.493Z,1.15
2022-10-26T12:06:46.079Z,1.00
2022-10-26T12:09:16.169Z,1.10
2022-10-26T12:11:56.496Z,1.10
2022-10-26T12:14:47.201Z,0.90
2022-10-26T12:17:31.059Z,1.00
2022-10-26T12:20:05.383Z,1.10
2022-10-26T12:22:38.020Z,1.20
2022-10-26T12:25:15.358Z,1.08
2022-10-26T12:27:42.343Z,1.20
2022-10-26T12:30:12.088Z,1.05
2022-10-26T12:32:50.489Z,1.10
2022-10-26T12:35:37.554Z,1.02
2022-10-26T12:38:29.056Z,1.10
2022-10-26T12:41:04.343Z,1.20
2022-10-26T12:43:30.897Z,1.20
2022-10-26T12:46:12.977Z,0.98
2022-10-26T12:48:40.212Z,1.20
2022-10-26T12:51:40.024Z,1.10
2022-10-26T12:54:33.055Z,1.13
2022-10-26T12:57:21.151Z,1.00
2022-10-26T13:00:06.034Z,1.17
2022-10-26T13:02:38.529Z,1.00
2022-10-26T13:05:17.056Z,1.02
2022-10-26T13:07:43.680Z,1.02
2022-10-26T13:10:13.257Z,0.98
2022-10-26T13:13:00.766Z,0.90
2022-10-26T13:15:32.263Z,1.05
2022-10-26T13:18:07.169Z,1.10
2022-10-26T13:20:34.568Z,1.10
2022-10-26T13:25:33.728Z,1.00
2022-10-26T13:28:05.863Z,0.93
2022-10-26T13:30:42.712Z,1.10
2022-10-26T13:33:15.294Z,1.10
2022-10-26T13:35:41.962Z,1.67
2022-10-26T13:38:10.656Z,1.52
2022-10-26T13:40:37.430Z,2.58
2022-10-26T13:43:04.713Z,3.10
2022-10-26T13:45:34.089Z,2.92
2022-10-26T13:48:40.470Z,2.20
2022-10-26T13:51:25.525Z,2.50
2022-10-26T13:53:59.598Z,2.38
2022-10-26T13:56:41.622Z,2.85
2022-10-26T13:59:12.824Z,2.22
2022-10-26T14:01:39.678Z,3.10
2022-10-26T14:04:17.400Z,2.53
2022-10-26T14:06:48.936Z,3.13
2022-10-26T14:09:16.202Z,4.25
2022-10-26T14:12:01.993Z,4.15
2022-10-26T14:14:36.351Z,4.88
2022-10-26T14:17:03.029Z,4.63
2022-10-26T14:19:34.134Z,7.45
2022-10-26T14:22:00.801Z,7.35
2022-10-26T14:24:45.820Z,6.18
2022-10-26T14:27:20.245Z,5.22
2022-10-26T14:30:03.723Z,5.78
2022-10-26T14:32:40.196Z,5.93
2022-10-26T14:35:12.486Z,4.70
2022-10-26T14:37:40.453Z,5.50
2022-10-26T14:40:10.361Z,5.00
2022-10-26T14:42:40.146Z,5.72
2022-10-26T14:45:09.453Z,5.47
2022-10-26T14:47:41.839Z,5.10
2022-10-26T14:50:18.598Z,4.38
2022-10-26T14:52:50.380Z,4.50
2022-10-26T14:56:04.780Z,8.55
2022-10-26T14:58:31.613Z,14.52
2022-10-26T15:01:23.833Z,11.85
2022-10-26T15:03:54.273Z,13.38
2022-10-26T15:06:56.302Z,40.42
2022-10-26T15:09:37.806Z,19.55
2022-10-26T15:12:04.827Z,24.50
2022-10-26T15:14:34.029Z,22.85
2022-10-26T15:17:00.685Z,18.65
2022-10-26T15:19:27.383Z,15.70
2022-10-26T15:21:54.152Z,14.23
2022-10-26T15:24:20.644Z,11.55
2022-10-26T15:26:47.265Z,11.63
2022-10-26T15:29:36.468Z,10.35
2022-10-26T15:34:30.800Z,7.63
2022-10-26T15:36:57.651Z,6.22
2022-10-26T15:39:25.959Z,5.97
2022-10-26T15:41:53.637Z,6.35
2022-10-26T15:44:21.628Z,7.88
2022-10-26T15:46:48.207Z,8.00
2022-10-26T15:49:18.993Z,7.07
2022-10-26T15:51:46.710Z,7.70
2022-10-26T15:54:13.424Z,6.75
2022-10-26T15:56:40.068Z,7.25
2022-10-26T15:59:24.838Z,7.07
2022-10-26T16:01:52.963Z,9.50
2022-10-26T16:04:19.641Z,7.85
2022-10-26T16:06:46.768Z,9.48
2022-10-26T16:09:15.983Z,13.68
2022-10-26T16:11:43.240Z,28.75
2022-10-26T16:14:13.184Z,23.23
2022-10-26T16:16:39.985Z,17.75
2022-10-26T16:19:29.377Z,14.85
2022-10-26T16:21:53.274Z,13.90
2022-10-26T16:24:19.915Z,11.23
2022-10-26T16:27:04.939Z,9.20
2022-10-26T16:29:31.766Z,8.93
2022-10-26T16:31:58.387Z,9.20
2022-10-26T16:34:25.007Z,7.97
2022-10-26T16:36:51.633Z,9.80
2022-10-26T16:39:19.629Z,10.20
2022-10-26T16:41:49.012Z,11.38
2022-10-26T16:44:15.580Z,11.55
2022-10-26T16:46:42.179Z,12.85
2022-10-26T16:49:08.925Z,12.93
2022-10-26T16:51:35.543Z,11.93
2022-10-26T16:54:02.173Z,15.68
2022-10-26T16:56:29.952Z,13.88
2022-10-26T16:58:57.213Z,12.60
2022-10-26T17:01:23.961Z,12.43
2022-10-26T17:03:51.267Z,12.07
2022-10-26T17:06:18.002Z,12.05
2022-10-26T17:08:44.684Z,12.90
2022-10-26T17:11:13.004Z,12.10
2022-10-26T17:13:39.948Z,14.20
2022-10-26T17:16:17.506Z,14.65
2022-10-26T17:18:44.470Z,13.35
2022-10-26T17:21:11.850Z,14.18
2022-10-26T17:23:38.524Z,11.30
2022-10-26T17:26:06.194Z,10.13
2022-10-26T17:28:32.900Z,9.65
2022-10-26T17:31:15.609Z,11.25
2022-10-26T17:33:43.351Z,8.38
2022-10-26T17:36:10.897Z,8.18
2022-10-26T17:38:38.558Z,9.35
2022-10-26T17:41:15.507Z,10.02
2022-10-26T17:43:42.941Z,7.90
2022-10-26T17:46:14.092Z,7.30
2022-10-26T17:48:41.010Z,7.97
2022-10-26T17:51:15.087Z,10.30
2022-10-26T17:53:41.740Z,13.17
2022-10-26T17:56:36.090Z,15.18
2022-10-26T17:59:05.102Z,11.00
2022-10-26T18:01:32.263Z,13.15
2022-10-26T18:03:59.200Z,11.93
2022-10-26T18:06:25.791Z,10.20
2022-10-26T18:08:52.357Z,10.85
2022-10-26T18:11:25.420Z,11.05
2022-10-26T18:13:54.005Z,10.88
2022-10-26T18:16:22.227Z,15.05
2022-10-26T18:18:51.932Z,17.08
2022-10-26T18:21:19.668Z,15.13
2022-10-26T18:23:46.679Z,33.13
2022-10-26T18:26:20.716Z,17.17
2022-10-26T18:28:47.354Z,10.93
2022-10-26T18:31:15.532Z,10.15
2022-10-26T18:33:42.702Z,15.68
2022-10-26T18:36:14.569Z,14.90
2022-10-26T18:38:41.407Z,16.80
2022-10-26T18:41:09.916Z,16.27
2022-10-26T18:43:40.285Z,16.92
2022-10-26T18:46:11.550Z,23.02
2022-10-26T18:48:38.215Z,24.25
2022-10-26T18:51:05.803Z,34.63
2022-10-26T18:53:35.997Z,26.35
2022-10-26T18:56:03.975Z,23.40
2022-10-26T18:58:31.911Z,23.73
2022-10-26T19:01:22.014Z,28.52
2022-10-26T19:03:52.741Z,24.90
2022-10-26T19:06:21.692Z,21.63
2022-10-26T19:08:48.314Z,22.75
2022-10-26T19:11:16.432Z,21.65
2022-10-26T19:13:43.168Z,20.88
2022-10-26T19:16:48.384Z,20.05
2022-10-26T19:19:16.189Z,21.07
2022-10-26T19:21:43.107Z,17.58
2022-10-26T19:24:14.535Z,25.98
2022-10-26T19:26:43.814Z,17.80
2022-10-26T19:29:14.595Z,121.68
2022-10-26T19:31:41.347Z,115.22
2022-10-26T19:34:08.047Z,30.90
2022-10-26T19:36:34.739Z,22.88
2022-10-26T19:39:02.057Z,17.70
2022-10-26T19:41:29.538Z,15.65
2022-10-26T19:43:56.446Z,16.58
2022-10-26T19:46:27.505Z,16.30
2022-10-26T19:48:58.650Z,16.58
2022-10-26T19:51:25.818Z,17.50
2022-10-26T19:53:52.543Z,12.85
2022-10-26T19:56:20.670Z,10.95
2022-10-26T19:58:47.614Z,11.05
2022-10-26T20:01:14.998Z,9.52
2022-10-26T20:03:41.721Z,9.77
2022-10-26T20:06:12.735Z,16.10
2022-10-26T20:08:43.966Z,15.18
2022-10-26T20:11:14.659Z,18.98
2022-10-26T20:13:42.639Z,15.25
2022-10-26T20:16:09.390Z,14.23
2022-10-26T20:18:36.017Z,13.15
2022-10-26T20:21:07.113Z,11.57
2022-10-26T20:23:33.697Z,13.90
2022-10-26T20:26:00.511Z,12.75
2022-10-26T20:28:27.259Z,11.95
2022-10-26T20:30:53.924Z,10.07
2022-10-26T20:33:20.654Z,13.93
2022-10-26T20:35:47.394Z,15.32
2022-10-26T20:38:20.539Z,11.38
2022-10-26T20:40:56.586Z,10.07
2022-10-26T20:43:23.903Z,11.20
2022-10-26T20:45:51.923Z,11.70
2022-10-26T20:48:19.215Z,14.10
2022-10-26T20:50:53.034Z,21.75
2022-10-26T20:53:38.238Z,14.30
2022-10-26T20:56:06.879Z,12.35
2022-10-26T20:58:51.766Z,11.75
2022-10-26T21:01:35.303Z,10.70
2022-10-26T21:04:02.718Z,10.85
2022-10-26T21:06:29.392Z,11.32
2022-10-26T21:08:56.776Z,13.48
2022-10-26T21:11:24.506Z,15.02
2022-10-26T21:13:52.627Z,16.38
2022-10-26T21:16:19.260Z,16.13
2022-10-26T21:18:45.845Z,14.20
2022-10-26T21:21:12.655Z,11.80
2022-10-26T21:23:40.082Z,10.63
2022-10-26T21:26:06.926Z,11.27
2022-10-26T21:28:35.009Z,12.50
2022-10-26T21:31:05.513Z,12.88
2022-10-26T21:33:32.296Z,12.40
2022-10-26T21:35:59.869Z,14.85
2022-10-26T21:38:27.553Z,14.10
2022-10-26T21:41:18.988Z,16.17
2022-10-26T21:43:48.793Z,16.80
2022-10-26T21:46:16.158Z,19.05
2022-10-26T21:48:42.779Z,16.50
2022-10-26T21:51:13.795Z,15.57
2022-10-26T21:53:40.621Z,18.05
2022-10-26T21:56:14.828Z,22.05
2022-10-26T21:58:41.646Z,18.17
2022-10-26T22:01:09.086Z,21.63
2022-10-26T22:03:36.432Z,17.83
2022-10-26T22:06:03.467Z,17.13
2022-10-26T22:08:30.039Z,16.75
2022-10-26T22:10:56.707Z,16.98
2022-10-26T22:13:23.558Z,17.90
2022-10-26T22:16:00.833Z,17.83
2022-10-26T22:18:27.425Z,18.52
2022-10-26T22:20:58.133Z,17.77
2022-10-26T22:23:24.710Z,18.63
2022-10-26T22:25:51.313Z,17.50
2022-10-26T22:28:17.958Z,15.48
2022-10-26T22:30:45.322Z,15.27
2022-10-26T22:33:13.139Z,19.77
2022-10-26T22:35:39.707Z,20.52
2022-10-26T22:38:06.466Z,18.83
2022-10-26T22:40:33.034Z,16.27
2022-10-26T22:42:59.619Z,16.10
2022-10-26T22:45:26.291Z,16.42
2022-10-26T22:47:53.015Z,17.83
2022-10-26T22:50:19.668Z,16.75
2022-10-26T22:52:46.425Z,15.95
2022-10-26T22:55:13.256Z,16.20
2022-10-26T22:57:40.004Z,17.85
2022-10-26T23:00:07.488Z,24.55
2022-10-26T23:02:34.040Z,20.27
2022-10-26T23:05:00.708Z,17.60
2022-10-26T23:07:29.497Z,18.98
2022-10-26T23:09:56.082Z,19.67
2022-10-26T23:12:22.669Z,16.67
2022-10-26T23:14:49.272Z,15.57
2022-10-26T23:17:15.830Z,17.10
2022-10-26T23:19:42.394Z,16.08
2022-10-26T23:22:09.015Z,17.73
2022-10-26T23:24:35.769Z,16.52
2022-10-26T23:27:02.402Z,13.27
2022-10-26T23:29:29.152Z,14.13
2022-10-26T23:31:55.716Z,14.88
2022-10-26T23:34:22.305Z,15.80
2022-10-26T23:36:49.245Z,14.02
2022-10-26T23:39:15.839Z,17.35
2022-10-26T23:41:42.386Z,15.23
2022-10-26T23:44:09.051Z,16.52
2022-10-26T23:46:35.628Z,15.88
2022-10-26T23:49:02.236Z,15.45
2022-10-26T23:51:28.822Z,19.05
2022-10-26T23:53:55.444Z,15.45
2022-10-26T23:56:22.017Z,17.35
2022-10-26T23:58:51.627Z,15.27
